Time;durP1;ratioP1;P1;durP2;ratioP2;P2;SDS_P1;SDS_P2;PMS_P1;PMS_P2;Temp;Humidity;BMP_temperature;BMP_pressure;BME280_temperature;BME280_humidity;BME280_pressure;Samples;Min_cycle;Max_cycle;Signal;HPM_P1;HPM_P2
2022/06/03 00:02:32;;;;;;;6.30;3.40;;;;;;;;;;10388394;28;20044;-44
2022/06/03 00:07:54;;;;;;;4.30;3.05;;;;;;;;;;10374283;28;20035;-43
2022/06/03 00:13:46;;;;;;;8.38;3.10;;;;;;;;;;10379130;28;20045;-40
2022/06/03 00:18:55;;;;;;;7.60;3.58;;;;;;;;;;10352352;28;20059;-43
2022/06/03 00:24:11;;;;;;;6.03;3.30;;;;;;;;;;10381434;28;20126;-41
2022/06/03 00:29:41;;;;;;;7.85;2.85;;;;;;;;;;10381143;28;20032;-42
2022/06/03 00:35:03;;;;;;;7.43;3.22;;;;;;;;;;10342877;28;20073;-41
2022/06/03 00:40:09;;;;;;;7.55;3.50;;;;;;;;;;10389645;28;20464;-41
2022/06/03 00:45:55;;;;;;;4.65;2.80;;;;;;;;;;10389691;28;20044;-40
2022/06/03 00:51:47;;;;;;;3.90;2.97;;;;;;;;;;10370801;28;20037;-41
2022/06/03 00:57:15;;;;;;;6.55;2.80;;;;;;;;;;10353227;28;20136;-41
2022/06/03 01:03:07;;;;;;;7.28;3.20;;;;;;;;;;10374039;28;20041;-41
2022/06/03 01:08:39;;;;;;;8.00;3.00;;;;;;;;;;10323175;28;20065;-43
2022/06/03 01:13:56;;;;;;;5.93;3.03;;;;;;;;;;10381009;28;20119;-41
2022/06/03 01:19:12;;;;;;;7.35;3.25;;;;;;;;;;10379182;28;20410;-42
2022/06/03 01:24:43;;;;;;;3.78;2.63;;;;;;;;;;10361052;28;20026;-42
2022/06/03 01:30:08;;;;;;;3.83;2.53;;;;;;;;;;10376925;28;20037;-41
2022/06/03 01:35:43;;;;;;;4.20;3.25;;;;;;;;;;10384760;28;20042;-41
2022/06/03 01:41:05;;;;;;;5.18;2.80;;;;;;;;;;10382269;28;20053;-42
2022/06/03 01:46:26;;;;;;;3.25;2.75;;;;;;;;;;10379023;28;20204;-41
2022/06/03 01:51:42;;;;;;;3.70;2.92;;;;;;;;;;10356413;28;20030;-44
2022/06/03 01:57:13;;;;;;;6.80;3.08;;;;;;;;;;10372191;28;20125;-42
2022/06/03 02:02:25;;;;;;;6.60;3.05;;;;;;;;;;10369743;28;20083;-44
2022/06/03 02:07:47;;;;;;;3.47;2.50;;;;;;;;;;10359039;28;20038;-43
2022/06/03 02:13:15;;;;;;;4.72;2.88;;;;;;;;;;10340970;28;20048;-43
2022/06/03 02:18:46;;;;;;;6.28;2.85;;;;;;;;;;10359778;28;20441;-43
2022/06/03 02:24:12;;;;;;;4.68;2.78;;;;;;;;;;10361307;28;20037;-46
2022/06/03 02:35:49;;;;;;;8.13;2.77;;;;;;;;;;10359463;28;20034;-43
2022/06/03 02:41:18;;;;;;;3.97;3.03;;;;;;;;;;10357214;28;20034;-44
2022/06/03 02:47:07;;;;;;;3.22;2.47;;;;;;;;;;10359700;28;20033;-43
2022/06/03 02:52:29;;;;;;;5.53;2.60;;;;;;;;;;10359458;28;20513;-41
2022/06/03 02:57:39;;;;;;;5.38;2.85;;;;;;;;;;10357916;28;20030;-41
2022/06/03 03:03:06;;;;;;;7.47;2.67;;;;;;;;;;10369288;28;20129;-43
2022/06/03 03:09:03;;;;;;;6.88;2.60;;;;;;;;;;10378677;28;20124;-41
2022/06/03 03:14:25;;;;;;;4.17;2.63;;;;;;;;;;10386274;28;20084;-40
2022/06/03 03:20:19;;;;;;;7.32;2.58;;;;;;;;;;10357670;28;20118;-40
2022/06/03 03:25:56;;;;;;;3.22;2.42;;;;;;;;;;10197335;29;20094;-40
2022/06/03 03:31:08;;;;;;;4.03;2.28;;;;;;;;;;10048020;29;20053;-41
2022/06/03 03:36:27;;;;;;;3.75;2.40;;;;;;;;;;10049645;29;20049;-43
2022/06/03 03:41:59;;;;;;;4.95;2.38;;;;;;;;;;10055151;29;20651;-45
2022/06/03 03:47:21;;;;;;;5.40;2.55;;;;;;;;;;10051384;29;20073;-41
2022/06/03 03:52:40;;;;;;;2.97;2.60;;;;;;;;;;10058025;29;20189;-41
2022/06/03 03:58:01;;;;;;;2.60;2.40;;;;;;;;;;10171465;29;20084;-43
2022/06/03 04:03:42;;;;;;;3.08;2.20;;;;;;;;;;10246711;28;20033;-40
2022/06/03 04:09:04;;;;;;;3.95;2.50;;;;;;;;;;10391431;28;20387;-40
2022/06/03 04:14:22;;;;;;;3.83;2.45;;;;;;;;;;10390723;28;20385;-40
2022/06/03 04:20:00;;;;;;;12.48;2.45;;;;;;;;;;10362677;28;20108;-41
2022/06/03 04:25:44;;;;;;;7.38;2.75;;;;;;;;;;10369978;28;20477;-42
2022/06/03 04:31:40;;;;;;;2.50;2.17;;;;;;;;;;10378668;28;20048;-41
2022/06/03 04:37:12;;;;;;;3.05;2.05;;;;;;;;;;10376938;28;20519;-41
2022/06/03 04:42:34;;;;;;;5.00;2.75;;;;;;;;;;10345505;28;20042;-41
2022/06/03 04:47:46;;;;;;;3.13;2.70;;;;;;;;;;10395081;28;20124;-41
2022/06/03 04:53:31;;;;;;;5.05;2.40;;;;;;;;;;10372048;28;20033;-41
2022/06/03 04:58:47;;;;;;;2.58;2.35;;;;;;;;;;10396465;28;20440;-40
2022/06/03 05:04:14;;;;;;;3.90;2.50;;;;;;;;;;10374697;28;20400;-41
2022/06/03 05:10:24;;;;;;;2.92;2.50;;;;;;;;;;10389378;28;20503;-43
2022/06/03 05:15:58;;;;;;;18.27;8.95;;;;;;;;;;10328589;28;20489;-42
2022/06/03 05:21:32;;;;;;;18.10;9.60;;;;;;;;;;10348756;28;20041;-42
2022/06/03 05:27:13;;;;;;;15.57;8.75;;;;;;;;;;10334197;28;20142;-43
2022/06/03 05:32:57;;;;;;;18.83;9.85;;;;;;;;;;10346788;28;20041;-43
2022/06/03 05:38:42;;;;;;;18.63;8.95;;;;;;;;;;10378709;28;20022;-42
2022/06/03 05:44:17;;;;;;;20.73;7.90;;;;;;;;;;10361860;28;20026;-41
2022/06/03 05:49:50;;;;;;;17.27;7.78;;;;;;;;;;10352455;28;20029;-41
2022/06/03 05:55:24;;;;;;;11.20;6.10;;;;;;;;;;10383618;28;20499;-45
2022/06/03 06:01:05;;;;;;;13.65;5.43;;;;;;;;;;10394211;28;20031;-41
2022/06/03 06:06:55;;;;;;;12.10;5.43;;;;;;;;;;10372415;28;20029;-42
2022/06/03 06:12:31;;;;;;;16.25;5.25;;;;;;;;;;10385910;28;20060;-41
2022/06/03 06:17:59;;;;;;;9.02;5.50;;;;;;;;;;10385742;28;20129;-41
2022/06/03 06:23:38;;;;;;;12.63;5.05;;;;;;;;;;10351232;28;20056;-41
2022/06/03 06:28:56;;;;;;;11.13;4.93;;;;;;;;;;10374862;28;20036;-41
2022/06/03 06:33:56;;;;;;;8.30;5.00;;;;;;;;;;10364788;28;20121;-41
2022/06/03 06:38:59;;;;;;;7.87;4.87;;;;;;;;;;10380645;28;20030;-41
2022/06/03 06:44:18;;;;;;;8.32;5.18;;;;;;;;;;10386798;28;20570;-42
2022/06/03 06:49:27;;;;;;;7.35;4.88;;;;;;;;;;10364023;28;20021;-43
2022/06/03 06:54:27;;;;;;;8.10;4.65;;;;;;;;;;10373315;28;20449;-44
2022/06/03 06:59:37;;;;;;;7.37;4.40;;;;;;;;;;10371658;28;20029;-42
2022/06/03 07:04:48;;;;;;;8.98;4.40;;;;;;;;;;10365963;28;20475;-44
2022/06/03 07:10:17;;;;;;;7.38;4.43;;;;;;;;;;10381494;28;20041;-42
2022/06/03 07:15:25;;;;;;;10.00;4.78;;;;;;;;;;10400421;28;20048;-42
2022/06/03 07:20:53;;;;;;;6.77;4.33;;;;;;;;;;10361909;28;20405;-41
2022/06/03 07:26:04;;;;;;;;;;;;;;;;;;10372164;28;20036;-41
2022/06/03 07:31:15;;;;;;;11.73;4.57;;;;;;;;;;10373894;28;19933;-42
2022/06/03 07:36:38;;;;;;;7.75;4.60;;;;;;;;;;10344678;28;20040;-41
2022/06/03 07:41:48;;;;;;;8.15;4.20;;;;;;;;;;10368125;28;20095;-44
2022/06/03 07:47:00;;;;;;;7.85;4.70;;;;;;;;;;10375445;28;20095;-41
2022/06/03 07:52:14;;;;;;;6.97;4.80;;;;;;;;;;10382338;28;20042;-41
2022/06/03 07:57:22;;;;;;;11.65;5.07;;;;;;;;;;10378966;28;20026;-41
2022/06/03 08:02:23;;;;;;;;;;;;;;;;;;10402165;28;20526;-41
2022/06/03 08:12:56;;;;;;;6.25;4.30;;;;;;;;;;10394642;28;20437;-41
2022/06/03 08:17:58;;;;;;;11.27;4.50;;;;;;;;;;10383895;28;20510;-40
2022/06/03 08:22:59;;;;;;;6.90;4.00;;;;;;;;;;10386138;28;20156;-43
2022/06/03 08:27:59;;;;;;;6.70;4.20;;;;;;;;;;10380360;28;20083;-41
2022/06/03 08:33:11;;;;;;;5.20;4.05;;;;;;;;;;10377376;28;20029;-41
2022/06/03 08:38:28;;;;;;;5.93;3.83;;;;;;;;;;10358974;28;20061;-41
2022/06/03 08:44:12;;;;;;;8.73;4.05;;;;;;;;;;10376592;28;20121;-41
2022/06/03 08:49:20;;;;;;;6.18;3.92;;;;;;;;;;10321041;28;20054;-41
2022/06/03 08:54:28;;;;;;;6.60;4.32;;;;;;;;;;10392087;28;20358;-41
2022/06/03 08:59:38;;;;;;;6.25;4.00;;;;;;;;;;10387892;28;20426;-41
2022/06/03 09:04:53;;;;;;;6.10;3.53;;;;;;;;;;10381563;28;20026;-41
2022/06/03 09:10:07;;;;;;;6.40;3.90;;;;;;;;;;10377576;28;20051;-41
2022/06/03 09:15:13;;;;;;;8.43;3.60;;;;;;;;;;10404259;28;20033;-42
2022/06/03 09:20:38;;;;;;;7.40;3.70;;;;;;;;;;10394143;28;20046;-41
2022/06/03 09:25:49;;;;;;;5.82;3.45;;;;;;;;;;10359070;28;20076;-42
2022/06/03 09:30:51;;;;;;;4.53;3.92;;;;;;;;;;10361556;28;20044;-42
2022/06/03 09:35:57;;;;;;;8.35;3.25;;;;;;;;;;10363283;28;20029;-41
2022/06/03 09:40:59;;;;;;;8.32;3.50;;;;;;;;;;10364956;28;20052;-41
2022/06/03 09:46:03;;;;;;;3.50;3.17;;;;;;;;;;10356370;28;20492;-41
2022/06/03 09:52:08;;;;;;;4.63;3.40;;;;;;;;;;10366377;28;20551;-42
2022/06/03 09:56:46;;;;;;;7.78;3.35;;;;;;;;;;10359598;28;20485;-41
2022/06/03 10:01:48;;;;;;;4.78;3.40;;;;;;;;;;10390331;28;20033;-42
2022/06/03 10:06:50;;;;;;;4.93;3.60;;;;;;;;;;10379834;28;20037;-41
2022/06/03 10:17:12;;;;;;;5.00;3.30;;;;;;;;;;10380659;28;20045;-41
2022/06/03 10:22:13;;;;;;;3.95;3.10;;;;;;;;;;10371776;28;20105;-42
2022/06/03 10:27:18;;;;;;;5.85;3.70;;;;;;;;;;10373126;28;20041;-41
2022/06/03 10:32:22;;;;;;;5.68;3.78;;;;;;;;;;10372786;28;20402;-42
2022/06/03 10:37:26;;;;;;;4.40;3.20;;;;;;;;;;10378427;28;20026;-42
2022/06/03 10:42:28;;;;;;;3.63;3.20;;;;;;;;;;10380225;28;20030;-43
2022/06/03 10:47:39;;;;;;;4.93;3.53;;;;;;;;;;10377004;28;20438;-42
2022/06/03 11:03:30;;;;;;;4.55;3.50;;;;;;;;;;10386820;28;20485;-41
2022/06/03 11:08:49;;;;;;;7.15;3.50;;;;;;;;;;10387459;28;20030;-41
2022/06/03 11:13:49;;;;;;;6.60;3.70;;;;;;;;;;10397075;28;20164;-41
2022/06/03 11:18:50;;;;;;;7.15;3.72;;;;;;;;;;10391265;28;20387;-41
2022/06/03 11:23:53;;;;;;;4.70;3.35;;;;;;;;;;10381412;28;20038;-41
2022/06/03 11:29:03;;;;;;;9.05;4.28;;;;;;;;;;10353590;28;20424;-42
2022/06/03 11:34:16;;;;;;;6.13;3.90;;;;;;;;;;10359898;28;20037;-42
2022/06/03 11:39:49;;;;;;;5.95;3.80;;;;;;;;;;10377975;28;20381;-41
2022/06/03 11:45:03;;;;;;;7.55;3.70;;;;;;;;;;10372915;28;20465;-41
2022/06/03 11:50:07;;;;;;;7.97;3.80;;;;;;;;;;10359484;28;20042;-41
2022/06/03 11:55:07;;;;;;;8.45;4.40;;;;;;;;;;10358402;28;20476;-41
2022/06/03 12:00:13;;;;;;;5.97;3.40;;;;;;;;;;10374609;28;20038;-41
2022/06/03 12:05:29;;;;;;;8.55;4.13;;;;;;;;;;10375309;28;20029;-41
2022/06/03 12:11:03;;;;;;;6.35;4.00;;;;;;;;;;10374366;28;20427;-41
2022/06/03 12:16:13;;;;;;;5.38;3.80;;;;;;;;;;10393382;28;20486;-41
2022/06/03 12:21:30;;;;;;;7.60;4.68;;;;;;;;;;10363021;28;20108;-41
2022/06/03 12:26:32;;;;;;;6.23;4.23;;;;;;;;;;10380399;28;20040;-41
2022/06/03 12:31:46;;;;;;;11.50;4.10;;;;;;;;;;10365463;28;20034;-41
2022/06/03 12:36:52;;;;;;;6.60;4.80;;;;;;;;;;10379134;28;20034;-41
2022/06/03 12:42:02;;;;;;;3.97;3.60;;;;;;;;;;10400746;28;20033;-41
2022/06/03 12:47:18;;;;;;;7.80;4.70;;;;;;;;;;10376785;28;20025;-40
2022/06/03 12:52:22;;;;;;;7.70;3.90;;;;;;;;;;10388044;28;20032;-41
2022/06/03 12:57:49;;;;;;;10.13;4.35;;;;;;;;;;10379653;28;20033;-41
2022/06/03 13:03:12;;;;;;;6.27;3.70;;;;;;;;;;10373396;28;20149;-41
2022/06/03 13:08:27;;;;;;;4.60;3.80;;;;;;;;;;10320771;28;20053;-41
2022/06/03 13:13:28;;;;;;;4.55;3.80;;;;;;;;;;10375973;28;20537;-41
2022/06/03 13:18:55;;;;;;;4.50;3.45;;;;;;;;;;10393488;28;20132;-41
2022/06/03 13:24:25;;;;;;;4.45;3.90;;;;;;;;;;10374413;28;20529;-42
2022/06/03 13:29:44;;;;;;;9.27;3.80;;;;;;;;;;10391884;28;20092;-41
2022/06/03 13:34:45;;;;;;;6.43;3.53;;;;;;;;;;10381514;28;20521;-41
2022/06/03 13:39:48;;;;;;;6.95;3.75;;;;;;;;;;10382343;28;20029;-41
2022/06/03 13:45:12;;;;;;;6.05;3.80;;;;;;;;;;10391201;28;20045;-41
2022/06/03 13:50:12;;;;;;;9.30;4.20;;;;;;;;;;10384624;28;20409;-41
2022/06/03 13:55:52;;;;;;;4.80;3.47;;;;;;;;;;10383554;28;20036;-41
2022/06/03 14:01:25;;;;;;;8.23;3.90;;;;;;;;;;10369542;28;20533;-42
2022/06/03 14:06:41;;;;;;;6.88;4.00;;;;;;;;;;10326504;28;20080;-41
2022/06/03 14:12:08;;;;;;;6.38;3.83;;;;;;;;;;10351364;28;20026;-41
2022/06/03 14:17:20;;;;;;;14.07;4.15;;;;;;;;;;10359524;28;20125;-42
2022/06/03 14:22:47;;;;;;;6.18;3.95;;;;;;;;;;10376399;28;20037;-41
2022/06/03 14:28:01;;;;;;;6.50;3.57;;;;;;;;;;10364025;28;20334;-40
2022/06/03 14:33:04;;;;;;;6.10;3.58;;;;;;;;;;10367731;28;20026;-41
2022/06/03 14:38:50;;;;;;;6.22;3.70;;;;;;;;;;10360914;28;20076;-41
2022/06/03 14:43:52;;;;;;;8.35;3.72;;;;;;;;;;10238906;28;20487;-41
2022/06/03 14:49:05;;;;;;;5.68;3.72;;;;;;;;;;10238337;28;20050;-41
2022/06/03 14:54:14;;;;;;;5.72;4.13;;;;;;;;;;10224236;28;20032;-41
2022/06/03 14:59:42;;;;;;;5.45;3.40;;;;;;;;;;10223965;28;20122;-41
2022/06/03 15:04:53;;;;;;;9.07;3.72;;;;;;;;;;10239388;28;20040;-41
2022/06/03 15:09:59;;;;;;;6.85;3.35;;;;;;;;;;10239476;28;20047;-41
2022/06/03 15:15:02;;;;;;;4.70;3.60;;;;;;;;;;10287844;22;21484;-49
2022/06/03 15:20:08;;;;;;;5.78;3.55;;;;;;;;;;10402912;28;20496;-49
2022/06/03 15:25:21;;;;;;;6.28;3.63;;;;;;;;;;10398309;28;20021;-50
2022/06/03 15:30:33;;;;;;;6.93;3.85;;;;;;;;;;10370629;28;20069;-49
2022/06/03 15:35:34;;;;;;;6.13;3.67;;;;;;;;;;10399657;28;20029;-49
2022/06/03 15:40:37;;;;;;;8.85;4.03;;;;;;;;;;10379111;28;20022;-51
2022/06/03 15:45:44;;;;;;;6.30;3.40;;;;;;;;;;10395766;28;20355;-50
2022/06/03 15:51:11;;;;;;;5.23;3.57;;;;;;;;;;10384340;28;20144;-51
2022/06/03 15:56:42;;;;;;;5.15;3.45;;;;;;;;;;10391169;28;20060;-49
2022/06/03 16:02:21;;;;;;;7.40;3.58;;;;;;;;;;10399856;28;20449;-48
2022/06/03 16:08:01;;;;;;;9.52;3.60;;;;;;;;;;10398333;28;20461;-49
2022/06/03 16:13:32;;;;;;;9.45;4.82;;;;;;;;;;10375776;28;20045;-51
2022/06/03 16:19:33;;;;;;;7.03;4.47;;;;;;;;;;10400083;28;20065;-49
2022/06/03 16:25:06;;;;;;;6.10;4.35;;;;;;;;;;10386219;28;20086;-49
2022/06/03 16:30:08;;;;;;;4.43;3.95;;;;;;;;;;10392091;28;20028;-48
2022/06/03 16:35:27;;;;;;;7.45;3.75;;;;;;;;;;10376553;28;20033;-50
2022/06/03 16:40:59;;;;;;;6.07;4.40;;;;;;;;;;10384974;28;20722;-48
2022/06/03 16:46:37;;;;;;;14.75;4.38;;;;;;;;;;10402120;28;20030;-52
2022/06/03 16:51:47;;;;;;;5.97;4.05;;;;;;;;;;10401983;28;20465;-49
2022/06/03 16:56:59;;;;;;;8.63;4.00;;;;;;;;;;10392676;28;20045;-49
2022/06/03 17:02:01;;;;;;;8.70;3.95;;;;;;;;;;10396709;28;20036;-48
2022/06/03 17:07:01;;;;;;;5.95;4.05;;;;;;;;;;10395671;28;20168;-50
2022/06/03 17:12:07;;;;;;;4.10;3.65;;;;;;;;;;10402403;28;20440;-49
2022/06/03 17:17:20;;;;;;;7.07;3.67;;;;;;;;;;10379638;28;20404;-51
2022/06/03 17:22:39;;;;;;;9.10;4.13;;;;;;;;;;10371492;28;20029;-50
2022/06/03 17:28:28;;;;;;;5.80;4.10;;;;;;;;;;10391311;28;20087;-46
2022/06/03 17:33:52;;;;;;;10.77;3.92;;;;;;;;;;10392325;28;20029;-50
2022/06/03 17:39:20;;;;;;;6.80;3.75;;;;;;;;;;10388404;28;20029;-50
2022/06/03 17:44:26;;;;;;;;;;;;;;;;;;10395331;28;20026;-49
2022/06/03 17:49:55;;;;;;;5.63;4.00;;;;;;;;;;10379065;28;19924;-51
2022/06/03 17:55:24;;;;;;;10.43;4.65;;;;;;;;;;10369556;28;20061;-49
2022/06/03 18:00:41;;;;;;;7.72;4.18;;;;;;;;;;10376102;28;20022;-48
2022/06/03 18:05:55;;;;;;;7.50;4.68;;;;;;;;;;10393929;28;20044;-49
2022/06/03 18:10:56;;;;;;;10.38;4.93;;;;;;;;;;10376703;28;20045;-50
2022/06/03 18:16:00;;;;;;;8.18;4.30;;;;;;;;;;10373653;28;20070;-47
2022/06/03 18:21:24;;;;;;;5.85;4.40;;;;;;;;;;10397618;28;20087;-49
2022/06/03 18:27:02;;;;;;;6.00;4.97;;;;;;;;;;10375614;28;20029;-51
2022/06/03 18:32:26;;;;;;;10.63;5.38;;;;;;;;;;10386078;28;20033;-49
2022/06/03 18:37:52;;;;;;;11.40;5.78;;;;;;;;;;10394959;28;20122;-49
2022/06/03 18:43:28;;;;;;;7.15;5.50;;;;;;;;;;10371062;28;20116;-52
2022/06/03 18:49:13;;;;;;;9.20;6.43;;;;;;;;;;10384537;28;20049;-50
2022/06/03 18:55:00;;;;;;;12.70;7.40;;;;;;;;;;10369462;28;20408;-52
2022/06/03 19:00:07;;;;;;;11.50;7.07;;;;;;;;;;10393266;28;20474;-49
2022/06/03 19:05:28;;;;;;;10.30;6.90;;;;;;;;;;10394826;28;20057;-48
2022/06/03 19:11:15;;;;;;;11.10;6.88;;;;;;;;;;10395260;28;20224;-50
2022/06/03 19:16:18;;;;;;;9.50;6.55;;;;;;;;;;10397976;28;20065;-49
2022/06/03 19:21:40;;;;;;;9.75;6.68;;;;;;;;;;10393632;28;20125;-48
2022/06/03 19:26:50;;;;;;;8.20;6.43;;;;;;;;;;10396978;28;20108;-48
2022/06/03 19:31:57;;;;;;;7.72;5.90;;;;;;;;;;10382498;28;20057;-49
2022/06/03 19:37:32;;;;;;;8.18;6.30;;;;;;;;;;10398616;28;20116;-51
2022/06/03 19:43:15;;;;;;;5.72;5.18;;;;;;;;;;10401751;28;20362;-49
2022/06/03 19:48:34;;;;;;;7.90;5.82;;;;;;;;;;10402112;28;20033;-48
2022/06/03 19:53:52;;;;;;;6.95;4.85;;;;;;;;;;10387414;28;20088;-49
2022/06/03 19:59:06;;;;;;;10.85;5.53;;;;;;;;;;10385469;28;20108;-49
2022/06/03 20:04:23;;;;;;;7.43;5.70;;;;;;;;;;10395874;28;20061;-49
2022/06/03 20:09:49;;;;;;;6.53;5.75;;;;;;;;;;10401260;28;20117;-50
2022/06/03 20:14:59;;;;;;;8.27;5.18;;;;;;;;;;10395385;28;20036;-48
2022/06/03 20:20:10;;;;;;;6.97;5.68;;;;;;;;;;10397556;28;20032;-49
2022/06/03 20:25:22;;;;;;;9.88;5.95;;;;;;;;;;10399689;28;20423;-48
2022/06/03 20:30:31;;;;;;;8.80;6.95;;;;;;;;;;10399759;28;20029;-47
2022/06/03 20:35:49;;;;;;;13.43;7.55;;;;;;;;;;10374255;28;20449;-47
2022/06/03 20:41:06;;;;;;;;;;;;;;;;;;10396573;28;20034;-46
2022/06/03 20:46:29;;;;;;;11.63;8.23;;;;;;;;;;10397584;28;20392;-47
2022/06/03 20:51:48;;;;;;;11.40;9.50;;;;;;;;;;10389456;28;20038;-47
2022/06/03 20:57:10;;;;;;;10.50;8.40;;;;;;;;;;10384329;28;20388;-48
2022/06/03 21:02:10;;;;;;;13.73;9.30;;;;;;;;;;10383406;28;20030;-48
2022/06/03 21:12:50;;;;;;;12.77;9.98;;;;;;;;;;10375955;28;20825;-48
2022/06/03 21:17:52;;;;;;;16.05;10.23;;;;;;;;;;10396528;28;20088;-47
2022/06/03 21:23:16;;;;;;;16.77;11.27;;;;;;;;;;10390760;28;20492;-50
2022/06/03 21:28:17;;;;;;;14.85;11.85;;;;;;;;;;10396955;28;20064;-47
2022/06/03 21:33:21;;;;;;;12.25;10.10;;;;;;;;;;10400479;28;20499;-48
2022/06/03 21:38:42;;;;;;;13.85;9.77;;;;;;;;;;10397658;28;20030;-48
2022/06/03 21:44:08;;;;;;;9.82;7.85;;;;;;;;;;10394731;28;20053;-47
2022/06/03 21:50:05;;;;;;;10.65;6.88;;;;;;;;;;10403598;28;20052;-48
2022/06/03 21:55:23;;;;;;;11.48;6.38;;;;;;;;;;10349786;28;20240;-48
2022/06/03 22:00:43;;;;;;;10.10;5.93;;;;;;;;;;10386637;28;20025;-49
2022/06/03 22:05:46;;;;;;;7.25;5.63;;;;;;;;;;10403242;28;20056;-49
2022/06/03 22:10:49;;;;;;;7.57;5.43;;;;;;;;;;10403018;28;20038;-47
2022/06/03 22:15:50;;;;;;;11.70;5.18;;;;;;;;;;10379285;28;20497;-49
2022/06/03 22:20:51;;;;;;;7.28;5.25;;;;;;;;;;10379738;28;20064;-48
2022/06/03 22:26:16;;;;;;;10.30;5.43;;;;;;;;;;10392093;28;20029;-49
2022/06/03 22:31:46;;;;;;;7.43;4.82;;;;;;;;;;10392961;28;20087;-48
2022/06/03 22:38:57;;;;;;;6.15;4.75;;;;;;;;;;10387199;28;20025;-49
2022/06/03 22:42:42;;;;;;;12.82;4.40;;;;;;;;;;10398914;28;20064;-48
2022/06/03 22:47:43;;;;;;;6.00;4.65;;;;;;;;;;10365643;28;20456;-49
2022/06/03 22:52:43;;;;;;;4.95;4.43;;;;;;;;;;10384185;28;20041;-48
2022/06/03 22:57:44;;;;;;;8.25;4.30;;;;;;;;;;10385896;28;20144;-47
2022/06/03 23:02:45;;;;;;;5.70;4.20;;;;;;;;;;10384995;28;20026;-47
2022/06/03 23:07:45;;;;;;;8.68;4.53;;;;;;;;;;10398173;28;20083;-47
2022/06/03 23:12:46;;;;;;;9.27;4.10;;;;;;;;;;10404681;28;20037;-48
2022/06/03 23:17:47;;;;;;;6.15;4.03;;;;;;;;;;10404638;28;20041;-48
2022/06/03 23:22:50;;;;;;;5.82;3.60;;;;;;;;;;10395327;28;20034;-48
2022/06/03 23:27:50;;;;;;;6.63;3.78;;;;;;;;;;10392917;28;20092;-47
2022/06/03 23:32:52;;;;;;;5.70;3.50;;;;;;;;;;10400735;28;20541;-50
2022/06/03 23:37:52;;;;;;;4.05;3.50;;;;;;;;;;10394561;28;20123;-48
2022/06/03 23:48:13;;;;;;;10.48;3.90;;;;;;;;;;10372963;28;20045;-48
2022/06/03 23:53:24;;;;;;;5.60;3.55;;;;;;;;;;10387924;28;20041;-48
2022/06/03 23:58:25;;;;;;;3.80;3.40;;;;;;;;;;10383941;28;20029;-48
